Time;durP1;ratioP1;P1;durP2;ratioP2;P2;SDS_P1;SDS_P2;PMS_P1;PMS_P2;Temp;Humidity;BMP_temperature;BMP_pressure;BME280_temperature;BME280_humidity;BME280_pressure;Samples;Min_cycle;Max_cycle;Signal;HPM_P1;HPM_P2
2023/11/08 00:02:14;;;;;;;3.55;0.60;;;;;;;13.62;64.59;100732.63;4966788;28;99212;-78
2023/11/08 00:04:41;;;;;;;2.85;0.60;;;;;;;13.45;65.19;100735.22;4969842;28;96700;-76
2023/11/08 00:07:09;;;;;;;5.32;0.80;;;;;;;13.54;64.49;100732.13;4976301;28;96819;-77
2023/11/08 00:09:35;;;;;;;5.28;0.85;;;;;;;13.55;64.65;100732.06;4969474;28;98955;-77
2023/11/08 00:12:03;;;;;;;1.38;0.70;;;;;;;13.60;64.63;100733.63;4979218;28;101785;-77
2023/11/08 00:14:30;;;;;;;0.50;0.45;;;;;;;13.40;64.81;100732.78;4966684;28;96935;-76
2023/11/08 00:16:58;;;;;;;0.77;0.52;;;;;;;13.63;64.08;100731.69;4970250;28;97732;-76
2023/11/08 00:19:25;;;;;;;2.55;0.90;;;;;;;13.76;63.72;100737.25;4969230;28;101160;-76
2023/11/08 00:21:51;;;;;;;1.40;0.80;;;;;;;13.65;63.67;100731.63;4977523;28;101427;-76
2023/11/08 00:24:18;;;;;;;0.90;0.60;;;;;;;13.43;64.61;100734.44;4968298;28;96865;-75
2023/11/08 00:26:45;;;;;;;1.90;0.68;;;;;;;13.61;63.80;100716.75;4968796;28;98664;-77
2023/11/08 00:29:11;;;;;;;2.30;0.60;;;;;;;13.54;64.10;100727.66;4967832;28;99103;-78
2023/11/08 00:31:37;;;;;;;1.70;0.68;;;;;;;13.27;65.04;100734.28;4968788;28;99025;-77
2023/11/08 00:34:06;;;;;;;1.15;0.80;;;;;;;13.47;64.76;100733.34;4970898;28;96828;-75
2023/11/08 00:36:33;;;;;;;1.50;0.95;;;;;;;13.11;65.23;100726.16;4974689;28;96978;-77
2023/11/08 00:38:59;;;;;;;2.45;0.93;;;;;;;13.42;64.55;100727.41;4971164;28;97118;-77
2023/11/08 00:41:26;;;;;;;1.58;0.70;;;;;;;13.35;64.97;100731.28;4981111;28;98892;-75
2023/11/08 00:43:55;;;;;;;4.18;0.85;;;;;;;13.18;65.45;100732.06;4973410;28;96907;-75
2023/11/08 00:46:22;;;;;;;2.53;0.70;;;;;;;13.15;65.74;100735.72;4975785;28;97722;-74
2023/11/08 00:48:48;;;;;;;2.65;0.90;;;;;;;12.98;66.40;100735.59;4976970;28;98940;-74
2023/11/08 00:51:16;;;;;;;1.48;0.73;;;;;;;13.24;65.74;100731.78;4979292;28;98772;-75
2023/11/08 00:53:42;;;;;;;2.22;0.90;;;;;;;13.21;65.43;100731.06;4978944;28;97251;-75
2023/11/08 00:56:09;;;;;;;3.78;0.80;;;;;;;13.07;65.63;100729.00;4986947;28;97051;-75
2023/11/08 00:58:36;;;;;;;5.38;0.70;;;;;;;12.92;66.45;100735.91;4978388;28;99467;-75
2023/11/08 01:01:03;;;;;;;0.80;0.60;;;;;;;12.97;67.02;100728.56;4973325;28;98617;-75
2023/11/08 01:03:29;;;;;;;1.67;0.50;;;;;;;13.09;65.80;100732.44;4975205;28;97646;-75
2023/11/08 01:05:56;;;;;;;2.92;0.85;;;;;;;13.06;65.82;100728.13;4980794;28;96802;-75
2023/11/08 01:08:24;;;;;;;1.75;0.82;;;;;;;12.94;66.60;100734.00;4982126;28;99136;-75
2023/11/08 01:10:51;;;;;;;1.77;1.00;;;;;;;13.12;66.42;100735.88;4973789;28;99948;-76
2023/11/08 01:13:18;;;;;;;1.40;0.68;;;;;;;13.31;65.17;100722.63;4984870;28;96722;-75
2023/11/08 01:15:44;;;;;;;2.13;0.52;;;;;;;13.26;65.13;100729.91;4972299;28;96885;-78
2023/11/08 01:18:11;;;;;;;5.28;1.25;;;;;;;13.07;65.58;100726.34;4970430;28;103580;-78
2023/11/08 01:20:38;;;;;;;1.15;0.70;;;;;;;13.05;66.46;100721.13;4972070;28;98891;-78
2023/11/08 01:23:04;;;;;;;3.70;0.82;;;;;;;13.12;66.09;100727.03;4971991;28;96866;-79
2023/11/08 01:25:32;;;;;;;0.57;0.55;;;;;;;13.25;65.44;100724.69;4974078;28;96858;-79
2023/11/08 01:27:58;;;;;;;4.85;1.15;;;;;;;13.16;65.79;100724.19;4971451;28;99440;-79
2023/11/08 01:30:25;;;;;;;2.35;0.80;;;;;;;12.96;66.52;100732.16;4973301;28;98199;-79
2023/11/08 01:32:52;;;;;;;1.10;0.60;;;;;;;12.97;66.29;100722.41;4975845;28;97623;-78
2023/11/08 01:35:19;;;;;;;1.10;0.80;;;;;;;13.01;66.13;100719.53;4983233;28;97536;-76
2023/11/08 01:37:46;;;;;;;1.58;0.60;;;;;;;12.90;66.63;100721.84;4996633;28;99623;-77
2023/11/08 01:40:12;;;;;;;1.77;0.60;;;;;;;12.90;66.47;100724.47;4978644;28;99181;-76
2023/11/08 01:42:41;;;;;;;3.05;0.80;;;;;;;12.98;66.25;100725.00;4981536;28;98339;-77
2023/11/08 01:45:08;;;;;;;1.98;0.70;;;;;;;12.73;67.65;100719.91;4985655;28;99235;-76
2023/11/08 01:47:35;;;;;;;1.85;0.68;;;;;;;12.96;66.57;100731.28;4971704;28;98913;-75
2023/11/08 01:50:03;;;;;;;3.17;1.30;;;;;;;13.08;66.20;100723.63;4968615;28;98803;-76
2023/11/08 01:52:30;;;;;;;3.47;0.90;;;;;;;12.89;66.74;100721.88;4972779;28;96954;-75
2023/11/08 01:54:57;;;;;;;2.08;0.80;;;;;;;12.78;66.97;100725.03;4981787;28;96852;-75
2023/11/08 01:57:24;;;;;;;1.08;0.70;;;;;;;12.76;67.01;100724.25;4979834;28;98944;-75
2023/11/08 01:59:53;;;;;;;1.20;0.70;;;;;;;12.77;67.13;100729.47;4978080;28;98844;-75
2023/11/08 02:02:20;;;;;;;2.15;0.90;;;;;;;12.72;67.22;100720.88;4979236;28;96703;-76
2023/11/08 02:04:47;;;;;;;5.30;0.93;;;;;;;12.77;66.91;100723.31;4972814;28;96805;-75
2023/11/08 02:07:13;;;;;;;2.60;0.85;;;;;;;12.83;66.89;100723.03;4977890;28;99572;-76
2023/11/08 02:09:40;;;;;;;2.05;1.10;;;;;;;12.75;67.29;100718.06;4973812;28;99906;-76
2023/11/08 02:12:07;;;;;;;1.55;0.90;;;;;;;12.55;67.96;100712.78;4974762;28;98121;-76
2023/11/08 02:14:34;;;;;;;3.65;0.70;;;;;;;12.73;67.30;100713.78;4973955;28;96774;-76
2023/11/08 02:17:01;;;;;;;6.03;0.80;;;;;;;12.67;67.63;100711.38;4985629;28;99609;-76
2023/11/08 02:19:28;;;;;;;1.95;1.10;;;;;;;12.60;67.95;100710.78;4971036;28;98814;-77
2023/11/08 02:21:54;;;;;;;1.88;0.80;;;;;;;12.47;68.76;100711.44;4969266;28;98800;-76
2023/11/08 02:24:23;;;;;;;2.65;0.77;;;;;;;12.47;68.49;100712.25;4983493;28;96997;-76
2023/11/08 02:26:49;;;;;;;4.47;1.30;;;;;;;12.40;68.72;100710.84;4977421;28;98892;-76
2023/11/08 02:29:17;;;;;;;1.25;1.05;;;;;;;12.43;68.50;100708.03;4978563;28;99133;-77
2023/11/08 02:31:43;;;;;;;3.85;1.13;;;;;;;12.53;68.09;100711.16;4988591;28;97306;-77
2023/11/08 02:34:10;;;;;;;2.10;0.90;;;;;;;12.37;68.80;100703.88;4982234;28;96873;-77
2023/11/08 02:36:36;;;;;;;2.15;0.95;;;;;;;12.59;68.28;100703.78;4974507;28;100034;-76
2023/11/08 02:39:04;;;;;;;5.45;1.00;;;;;;;12.51;68.25;100702.41;4982858;28;98128;-76
2023/11/08 02:41:32;;;;;;;1.65;0.90;;;;;;;12.49;68.19;100710.41;4977579;28;96759;-75
2023/11/08 02:43:58;;;;;;;2.63;1.00;;;;;;;12.56;68.19;100705.69;4978291;28;97226;-76
2023/11/08 02:46:25;;;;;;;2.03;1.05;;;;;;;12.53;68.39;100708.50;4970575;28;101413;-76
2023/11/08 02:48:56;;;;;;;1.50;1.05;;;;;;;12.61;67.67;100704.56;4977572;28;99214;-76
2023/11/08 02:51:23;;;;;;;1.85;1.00;;;;;;;12.50;68.04;100701.53;4968342;28;97068;-76
2023/11/08 02:53:49;;;;;;;6.55;1.08;;;;;;;12.54;68.12;100697.81;4967557;28;97210;-76
2023/11/08 02:56:16;;;;;;;1.92;0.90;;;;;;;12.51;68.37;100700.63;4969699;28;99132;-76
2023/11/08 02:58:43;;;;;;;2.92;0.90;;;;;;;12.50;68.41;100695.38;4970278;28;98834;-76
2023/11/08 03:01:10;;;;;;;3.13;0.98;;;;;;;12.69;67.61;100699.78;4969506;28;97029;-76
2023/11/08 03:03:37;;;;;;;3.47;0.82;;;;;;;12.47;68.05;100696.34;4967889;28;99404;-78
2023/11/08 03:06:04;;;;;;;1.88;0.90;;;;;;;12.64;67.56;100706.22;4968147;28;98736;-76
2023/11/08 03:08:30;;;;;;;2.85;0.95;;;;;;;12.54;67.63;100697.81;4969240;28;99279;-77
2023/11/08 03:10:56;;;;;;;1.10;0.93;;;;;;;12.45;67.84;100703.53;4969578;28;99493;-77
2023/11/08 03:13:25;;;;;;;5.20;1.08;;;;;;;12.56;67.66;100700.41;4970163;28;96879;-76
2023/11/08 03:15:54;;;;;;;1.88;0.75;;;;;;;12.34;68.21;100696.03;4969875;28;99132;-77
2023/11/08 03:18:21;;;;;;;2.75;1.00;;;;;;;12.19;69.21;100702.00;4969947;28;104350;-78
2023/11/08 03:20:47;;;;;;;1.17;0.90;;;;;;;12.21;69.03;100704.56;4969620;28;97636;-77
2023/11/08 03:23:14;;;;;;;2.95;0.90;;;;;;;12.36;68.62;100699.50;4967588;28;98861;-77
2023/11/08 03:25:40;;;;;;;2.45;0.80;;;;;;;12.29;68.85;100699.81;4968355;28;99040;-77
2023/11/08 03:28:06;;;;;;;4.38;1.02;;;;;;;12.25;68.97;100707.06;4969443;28;98391;-76
2023/11/08 03:30:33;;;;;;;2.40;0.90;;;;;;;11.80;70.85;100703.69;4967590;28;97187;-76
2023/11/08 03:33:00;;;;;;;4.50;1.20;;;;;;;12.02;70.45;100707.16;4970062;28;96933;-76
2023/11/08 03:35:27;;;;;;;4.40;0.90;;;;;;;12.03;69.98;100702.72;4968425;28;100498;-76
2023/11/08 03:37:55;;;;;;;3.97;0.90;;;;;;;12.02;69.90;100696.56;4967194;28;97637;-76
2023/11/08 03:40:22;;;;;;;4.25;1.17;;;;;;;12.01;70.19;100694.84;4981500;28;96770;-76
2023/11/08 03:42:48;;;;;;;1.77;0.90;;;;;;;11.98;69.98;100693.19;4962753;28;97680;-77
2023/11/08 03:45:15;;;;;;;2.40;0.88;;;;;;;12.16;69.54;100696.84;4966240;28;101833;-77
2023/11/08 03:47:42;;;;;;;1.80;0.80;;;;;;;12.16;69.55;100693.31;4969394;28;99106;-76
2023/11/08 03:50:10;;;;;;;1.00;0.77;;;;;;;12.22;69.37;100699.22;4970792;28;98918;-76
2023/11/08 03:52:37;;;;;;;4.20;1.25;;;;;;;12.13;69.42;100702.28;4966045;28;97786;-75
2023/11/08 03:55:04;;;;;;;1.67;0.98;;;;;;;11.94;70.04;100699.53;4967641;28;97885;-76
2023/11/08 03:57:31;;;;;;;1.85;0.80;;;;;;;12.07;70.14;100702.53;4967571;28;99155;-76
2023/11/08 03:59:57;;;;;;;2.65;0.73;;;;;;;11.81;70.95;100700.13;4968237;28;98730;-77
2023/11/08 04:02:25;;;;;;;3.30;0.98;;;;;;;11.94;70.43;100702.19;4968950;28;98055;-76
2023/11/08 04:04:51;;;;;;;3.58;0.90;;;;;;;12.11;69.93;100705.91;4968080;28;98682;-76
2023/11/08 04:07:19;;;;;;;2.55;1.13;;;;;;;12.04;69.71;100697.34;4970303;28;99187;-75
2023/11/08 04:09:46;;;;;;;2.65;1.00;;;;;;;12.04;69.66;100705.31;4972152;28;96918;-76
2023/11/08 04:12:13;;;;;;;3.47;1.00;;;;;;;11.88;70.54;100713.00;4969071;28;96924;-76
2023/11/08 04:14:40;;;;;;;13.15;1.25;;;;;;;11.94;70.28;100710.16;4966198;28;102065;-77
2023/11/08 04:17:09;;;;;;;3.10;0.82;;;;;;;11.75;71.43;100703.03;4971533;28;101551;-75
2023/11/08 04:19:36;;;;;;;3.75;1.10;;;;;;;12.05;70.40;100703.53;4968710;28;97745;-75
2023/11/08 04:22:02;;;;;;;2.00;0.75;;;;;;;12.05;70.24;100699.09;4968107;28;98062;-75
2023/11/08 04:24:30;;;;;;;7.18;1.27;;;;;;;12.15;69.73;100703.06;4971291;28;99548;-76
2023/11/08 04:26:58;;;;;;;2.97;1.00;;;;;;;12.05;70.21;100701.72;4968743;28;99219;-75
2023/11/08 04:29:25;;;;;;;3.47;1.10;;;;;;;12.15;69.94;100704.84;4971785;28;96734;-77
2023/11/08 04:31:52;;;;;;;4.25;1.20;;;;;;;12.15;69.81;100704.84;4976027;28;96818;-77
2023/11/08 04:34:18;;;;;;;4.53;1.23;;;;;;;12.09;70.22;100710.41;4977496;28;98892;-77
2023/11/08 04:36:45;;;;;;;2.20;0.90;;;;;;;12.34;69.50;100706.63;4973458;28;99071;-77
2023/11/08 04:39:15;;;;;;;7.85;1.35;;;;;;;12.28;69.73;100709.56;4980884;28;96966;-76
2023/11/08 04:41:44;;;;;;;4.93;1.30;;;;;;;12.31;69.29;100706.78;4984050;28;96776;-76
2023/11/08 04:44:11;;;;;;;3.92;1.10;;;;;;;12.26;69.78;100708.78;4975241;28;101648;-78
2023/11/08 04:46:40;;;;;;;3.83;0.95;;;;;;;12.38;69.05;100712.69;4970054;28;99513;-77
2023/11/08 04:49:07;;;;;;;5.25;1.27;;;;;;;12.32;69.17;100702.34;4971692;28;97846;-77
2023/11/08 04:51:33;;;;;;;5.28;1.20;;;;;;;12.33;69.08;100710.22;4972562;28;97130;-77
2023/11/08 04:54:00;;;;;;;3.97;1.10;;;;;;;12.44;69.17;100706.25;4970274;28;99358;-77
2023/11/08 04:56:26;;;;;;;2.60;0.90;;;;;;;12.53;68.87;100701.41;4970803;28;98995;-77
2023/11/08 04:58:54;;;;;;;3.70;0.98;;;;;;;12.41;69.05;100707.22;4971243;28;97053;-77
2023/11/08 05:01:21;;;;;;;4.15;0.93;;;;;;;12.66;67.91;100707.03;4968323;28;96829;-77
2023/11/08 05:03:48;;;;;;;3.60;0.82;;;;;;;12.41;68.81;100704.56;4969130;28;101677;-77
2023/11/08 05:06:14;;;;;;;3.97;1.17;;;;;;;12.41;68.84;100707.22;4971043;28;98759;-77
2023/11/08 05:08:41;;;;;;;6.80;1.00;;;;;;;12.57;68.13;100713.59;4971726;28;98738;-77
2023/11/08 05:11:07;;;;;;;3.05;1.08;;;;;;;12.38;69.13;100704.72;4972177;28;97422;-76
2023/11/08 05:13:33;;;;;;;6.80;1.00;;;;;;;12.42;68.96;100702.78;4970570;28;99111;-77
2023/11/08 05:16:01;;;;;;;9.05;1.40;;;;;;;12.60;68.14;100708.13;4970452;28;99206;-76
2023/11/08 05:18:28;;;;;;;4.93;1.08;;;;;;;12.34;69.08;100705.78;4971210;28;97695;-77
2023/11/08 05:20:55;;;;;;;3.25;1.05;;;;;;;12.50;68.58;100705.97;4970255;28;96875;-77
2023/11/08 05:23:21;;;;;;;3.10;0.98;;;;;;;12.27;69.50;100709.63;4974825;28;98904;-77
2023/11/08 05:25:48;;;;;;;4.28;0.90;;;;;;;12.36;69.18;100704.78;4971808;28;99874;-77
2023/11/08 05:28:15;;;;;;;8.90;1.13;;;;;;;12.49;68.55;100710.41;4975613;28;96790;-77
2023/11/08 05:30:41;;;;;;;3.75;1.00;;;;;;;12.58;68.38;100710.03;4970165;28;97302;-78
2023/11/08 05:33:10;;;;;;;2.05;0.85;;;;;;;12.30;69.03;100709.50;4967554;28;99005;-79
2023/11/08 05:35:38;;;;;;;3.13;0.98;;;;;;;12.40;69.25;100717.91;4970433;28;101884;-78
2023/11/08 05:38:04;;;;;;;4.15;1.08;;;;;;;12.34;68.65;100703.13;4964938;28;97743;-79
2023/11/08 05:40:33;;;;;;;4.55;1.17;;;;;;;12.33;69.06;100710.22;4967420;28;97264;-78
2023/11/08 05:43:00;;;;;;;6.28;2.00;;;;;;;12.53;68.35;100719.09;4969874;28;101408;-78
2023/11/08 05:45:26;;;;;;;3.83;0.93;;;;;;;12.51;68.21;100715.66;4971952;28;99189;-77
2023/11/08 05:47:52;;;;;;;5.93;1.20;;;;;;;12.60;68.23;100717.91;4971258;28;96805;-77
2023/11/08 05:50:20;;;;;;;6.15;1.10;;;;;;;12.51;68.30;100723.59;4969398;28;96877;-77
2023/11/08 05:52:47;;;;;;;5.13;1.17;;;;;;;12.25;69.12;100724.72;4978382;28;99090;-76
2023/11/08 05:55:14;;;;;;;4.93;1.10;;;;;;;12.37;69.04;100729.50;4974420;28;100639;-75
2023/11/08 05:57:40;;;;;;;1.98;1.02;;;;;;;12.64;68.07;100730.09;4969303;28;97551;-75
2023/11/08 06:00:09;;;;;;;7.03;1.00;;;;;;;12.41;68.39;100728.44;4969746;28;97933;-76
2023/11/08 06:02:35;;;;;;;2.67;0.88;;;;;;;12.61;68.02;100731.06;4968150;28;98929;-75
2023/11/08 06:05:04;;;;;;;2.72;0.90;;;;;;;12.67;67.78;100728.16;4970228;28;99507;-75
2023/11/08 06:07:31;;;;;;;5.30;0.93;;;;;;;12.72;67.71;100727.97;4968367;28;96816;-76
2023/11/08 06:10:00;;;;;;;3.03;1.00;;;;;;;12.73;67.44;100733.19;4970189;28;98698;-77
2023/11/08 06:12:26;;;;;;;3.33;0.90;;;;;;;12.84;67.14;100740.66;4968938;28;98286;-77
2023/11/08 06:14:53;;;;;;;5.40;1.25;;;;;;;12.93;66.52;100742.06;4971027;28;101820;-77
2023/11/08 06:17:19;;;;;;;3.15;1.25;;;;;;;12.83;66.55;100736.28;4965786;28;97950;-77
2023/11/08 06:19:47;;;;;;;7.22;1.20;;;;;;;12.86;66.91;100743.25;4959383;28;96928;-77
2023/11/08 06:22:13;;;;;;;5.10;0.82;;;;;;;12.89;66.76;100746.63;4973355;28;99273;-76
2023/11/08 06:24:41;;;;;;;4.68;1.25;;;;;;;12.73;66.79;100737.66;4969852;28;98886;-77
2023/11/08 06:27:10;;;;;;;8.88;1.60;;;;;;;12.92;66.29;100746.50;4967972;28;96797;-77
2023/11/08 06:29:39;;;;;;;4.97;1.65;;;;;;;12.89;66.55;100746.63;4971286;28;96855;-78
2023/11/08 06:32:06;;;;;;;6.80;1.45;;;;;;;12.72;67.15;100751.81;4969510;28;99152;-77
2023/11/08 06:34:33;;;;;;;8.50;1.42;;;;;;;12.95;66.45;100746.34;4965972;28;99541;-77
2023/11/08 06:36:59;;;;;;;3.33;0.90;;;;;;;13.22;65.07;100748.69;4966687;28;96841;-77
2023/11/08 06:39:26;;;;;;;8.95;1.13;;;;;;;12.90;66.15;100753.66;4965676;28;99018;-75
2023/11/08 06:41:54;;;;;;;4.72;1.02;;;;;;;12.71;67.70;100758.91;4963119;28;99296;-75
2023/11/08 06:44:21;;;;;;;7.97;1.10;;;;;;;12.68;68.73;100758.19;4959552;28;99697;-75
2023/11/08 06:46:47;;;;;;;5.78;1.20;;;;;;;12.62;69.66;100763.75;4967109;28;100707;-76
2023/11/08 06:49:13;;;;;;;4.70;1.23;;;;;;;12.58;70.46;100768.34;4961820;28;100360;-76
2023/11/08 06:51:40;;;;;;;7.40;1.23;;;;;;;12.63;70.89;100761.03;4964441;28;99078;-75
2023/11/08 06:54:06;;;;;;;6.97;2.50;;;;;;;12.96;69.95;100766.63;4967172;28;98852;-75
2023/11/08 06:56:33;;;;;;;9.23;4.00;;;;;;;13.00;69.81;100759.38;4964826;28;97065;-77
2023/11/08 06:59:01;;;;;;;5.18;1.48;;;;;;;13.15;69.01;100770.22;4963021;28;96912;-76
2023/11/08 07:01:27;;;;;;;5.75;1.73;;;;;;;12.98;69.39;100761.28;4969174;28;99335;-77
2023/11/08 07:03:54;;;;;;;11.93;1.23;;;;;;;13.12;69.30;100775.69;4960811;28;99306;-76
2023/11/08 07:06:20;;;;;;;8.85;1.50;;;;;;;13.13;69.21;100777.38;4962685;28;97370;-75
2023/11/08 07:08:47;;;;;;;5.95;1.70;;;;;;;13.09;69.25;100775.75;4960066;28;96918;-75
2023/11/08 07:11:13;;;;;;;5.68;1.10;;;;;;;13.22;68.72;100777.88;4964837;28;98904;-75
2023/11/08 07:13:40;;;;;;;10.02;1.63;;;;;;;13.04;69.48;100780.44;4962717;28;101671;-74
2023/11/08 07:16:08;;;;;;;4.63;1.17;;;;;;;13.45;68.43;100775.91;4964149;28;96956;-77
2023/11/08 07:18:34;;;;;;;3.35;1.23;;;;;;;13.34;68.04;100783.50;4965490;28;96889;-77
2023/11/08 07:21:01;;;;;;;3.13;1.08;;;;;;;13.43;67.85;100780.41;4962813;28;98292;-75
2023/11/08 07:23:27;;;;;;;5.82;1.30;;;;;;;13.56;67.22;100776.25;4965681;28;99117;-76
2023/11/08 07:25:54;;;;;;;6.32;1.25;;;;;;;13.31;68.45;100788.97;4971218;28;97635;-77
2023/11/08 07:28:20;;;;;;;7.25;1.40;;;;;;;13.22;69.01;100794.66;4970811;28;96844;-77
2023/11/08 07:30:46;;;;;;;2.63;1.13;;;;;;;13.08;68.96;100797.91;4969483;28;99300;-76
2023/11/08 07:33:16;;;;;;;3.75;2.45;;;;;;;13.27;68.90;100799.75;4963172;28;101610;-77
2023/11/08 07:35:44;;;;;;;5.45;1.17;;;;;;;13.10;68.83;100801.38;4968608;28;97629;-77
2023/11/08 07:38:10;;;;;;;7.93;1.30;;;;;;;13.14;68.68;100795.00;4963383;28;97113;-76
2023/11/08 07:40:37;;;;;;;3.90;0.98;;;;;;;13.01;69.96;100791.16;4966003;28;99034;-75
2023/11/08 07:43:03;;;;;;;4.97;1.10;;;;;;;13.35;69.48;100800.28;4964141;28;98774;-76
2023/11/08 07:45:30;;;;;;;3.63;1.13;;;;;;;13.29;68.73;100801.44;4961579;28;97210;-77
2023/11/08 07:47:56;;;;;;;7.40;1.20;;;;;;;13.38;68.18;100800.16;4971522;28;97017;-77
2023/11/08 07:50:24;;;;;;;5.55;1.27;;;;;;;13.24;68.20;100800.78;4968446;28;98893;-75
2023/11/08 07:52:51;;;;;;;3.92;1.23;;;;;;;13.37;68.22;100803.72;4960037;28;98983;-74
2023/11/08 07:55:17;;;;;;;2.55;0.98;;;;;;;13.10;69.33;100808.47;4968477;28;97648;-75
2023/11/08 07:57:44;;;;;;;6.00;1.30;;;;;;;13.07;69.28;100809.44;4967668;28;96881;-74
2023/11/08 08:00:14;;;;;;;4.10;0.88;;;;;;;13.10;69.42;100811.97;4967183;28;101239;-75
2023/11/08 08:02:42;;;;;;;3.35;0.98;;;;;;;13.28;68.52;100812.09;4970613;28;98685;-74
2023/11/08 08:05:10;;;;;;;5.95;0.88;;;;;;;13.46;68.08;100811.25;4971785;28;98289;-77
2023/11/08 08:07:37;;;;;;;4.38;1.17;;;;;;;13.78;67.04;100807.13;4977312;28;96745;-74
2023/11/08 08:10:06;;;;;;;4.63;1.05;;;;;;;13.92;66.65;100804.63;4964676;28;98923;-73
2023/11/08 08:12:33;;;;;;;2.90;1.30;;;;;;;13.80;66.38;100811.41;4965638;28;98852;-75
2023/11/08 08:14:59;;;;;;;10.00;1.85;;;;;;;13.91;66.08;100808.25;4970860;28;98118;-75
2023/11/08 08:17:26;;;;;;;18.08;1.20;;;;;;;13.85;66.74;100806.72;4973366;28;96778;-76
2023/11/08 08:19:55;;;;;;;20.45;1.75;;;;;;;13.88;66.97;100805.72;4972956;28;99108;-76
2023/11/08 08:22:22;;;;;;;20.80;1.45;;;;;;;13.77;67.55;100810.69;4974593;28;99969;-75
2023/11/08 08:24:50;;;;;;;3.90;1.10;;;;;;;13.58;68.76;100816.03;4966962;28;96939;-76
2023/11/08 08:27:17;;;;;;;5.20;1.30;;;;;;;13.83;68.84;100815.72;4971601;28;96795;-73
2023/11/08 08:29:44;;;;;;;23.88;2.28;;;;;;;13.94;68.31;100808.94;4968775;28;99157;-76
2023/11/08 08:32:11;;;;;;;26.45;2.75;;;;;;;13.69;69.28;100821.69;4970973;28;98884;-76
2023/11/08 08:34:38;;;;;;;5.15;1.00;;;;;;;13.51;70.21;100807.47;4966634;28;97001;-75
2023/11/08 08:37:05;;;;;;;3.25;1.20;;;;;;;13.78;69.22;100815.94;4970281;28;97302;-76
2023/11/08 08:39:31;;;;;;;4.28;0.90;;;;;;;14.07;68.49;100818.97;4972441;28;99830;-76
2023/11/08 08:42:01;;;;;;;2.90;1.08;;;;;;;13.83;68.41;100821.88;4967529;28;99400;-76
2023/11/08 08:44:27;;;;;;;2.38;1.20;;;;;;;13.72;69.28;100834.78;4963693;28;96748;-75
2023/11/08 08:46:54;;;;;;;6.90;1.55;;;;;;;13.87;68.51;100822.59;4963351;28;99262;-76
2023/11/08 08:49:21;;;;;;;6.90;3.47;;;;;;;14.01;68.04;100832.56;4968535;28;99551;-74
2023/11/08 08:51:47;;;;;;;3.60;1.08;;;;;;;14.14;67.15;100831.03;4965942;28;100192;-75
2023/11/08 08:54:15;;;;;;;6.10;1.33;;;;;;;14.13;67.09;100831.97;4968360;28;97460;-74
2023/11/08 08:56:42;;;;;;;3.95;1.00;;;;;;;14.25;66.23;100834.88;4970869;28;98979;-74
2023/11/08 08:59:12;;;;;;;5.85;0.93;;;;;;;14.12;66.05;100832.88;4965209;28;102206;-75
2023/11/08 09:01:38;;;;;;;4.43;1.10;;;;;;;14.45;65.37;100847.22;4955999;28;101233;-75
2023/11/08 09:04:05;;;;;;;4.05;1.00;;;;;;;14.21;65.62;100845.75;4960380;28;98475;-75
2023/11/08 09:06:31;;;;;;;3.00;1.33;;;;;;;14.25;65.14;100844.63;4966535;28;97211;-74
2023/11/08 09:08:58;;;;;;;4.32;1.83;;;;;;;14.60;64.61;100842.94;4963965;28;99946;-75
2023/11/08 09:11:24;;;;;;;4.32;1.17;;;;;;;14.54;63.59;100835.25;4960599;28;99197;-73
2023/11/08 09:13:51;;;;;;;4.50;1.05;;;;;;;14.52;63.60;100843.31;4965662;28;98613;-75
2023/11/08 09:16:20;;;;;;;6.30;1.83;;;;;;;14.95;62.84;100843.78;4965583;28;98594;-74
2023/11/08 09:18:46;;;;;;;3.78;1.10;;;;;;;14.76;61.87;100849.22;4964077;28;99447;-75
2023/11/08 09:21:13;;;;;;;7.97;1.05;;;;;;;15.09;61.56;100846.59;4966196;28;97716;-75
2023/11/08 09:23:40;;;;;;;6.68;1.10;;;;;;;14.74;61.20;100845.75;4962572;28;98836;-74
2023/11/08 09:26:06;;;;;;;3.85;1.20;;;;;;;14.61;61.78;100847.31;4967321;28;97164;-75
2023/11/08 09:28:33;;;;;;;4.03;1.17;;;;;;;14.33;62.25;100853.09;4968132;28;102024;-74
2023/11/08 09:30:59;;;;;;;7.78;1.20;;;;;;;13.98;64.29;100851.31;4964758;28;98968;-74
2023/11/08 09:33:27;;;;;;;7.63;1.65;;;;;;;14.37;63.03;100849.38;4965549;28;97079;-75
2023/11/08 09:35:53;;;;;;;3.05;1.10;;;;;;;14.20;63.58;100854.63;4966942;28;97190;-75
2023/11/08 09:38:20;;;;;;;6.10;1.10;;;;;;;14.35;63.17;100857.41;4964754;28;98988;-75
2023/11/08 09:40:50;;;;;;;15.80;1.75;;;;;;;13.98;64.04;100849.50;4969851;28;98071;-75
2023/11/08 09:43:20;;;;;;;3.38;0.98;;;;;;;14.35;63.89;100862.75;4966068;28;99197;-75
2023/11/08 09:45:47;;;;;;;7.97;1.10;;;;;;;14.14;63.65;100850.50;4967946;28;99865;-75
2023/11/08 09:48:13;;;;;;;35.10;1.88;;;;;;;14.29;62.21;100855.06;4969611;28;98996;-75
2023/11/08 09:50:41;;;;;;;11.65;1.13;;;;;;;14.28;61.99;100855.13;4962126;28;98929;-74
2023/11/08 09:53:08;;;;;;;21.58;1.40;;;;;;;14.56;61.92;100858.19;4965599;28;97084;-74
2023/11/08 09:55:34;;;;;;;2.92;1.27;;;;;;;14.41;61.97;100858.94;4971021;28;98238;-75
2023/11/08 09:58:03;;;;;;;16.77;1.65;;;;;;;14.50;61.93;100855.84;4968303;28;99104;-74
2023/11/08 10:00:30;;;;;;;8.73;1.30;;;;;;;14.67;60.36;100842.53;4967487;28;99158;-73
2023/11/08 10:02:58;;;;;;;22.10;1.65;;;;;;;14.47;60.95;100844.47;4964846;28;96928;-74
2023/11/08 10:05:25;;;;;;;5.30;1.58;;;;;;;14.49;61.20;100846.16;4968258;28;97235;-74
2023/11/08 10:07:53;;;;;;;4.43;0.90;;;;;;;14.65;61.16;100841.75;4962112;28;97904;-74
2023/11/08 10:10:19;;;;;;;54.15;2.97;;;;;;;14.77;59.84;100849.09;4964276;28;98457;-74
2023/11/08 10:12:46;;;;;;;19.13;1.77;;;;;;;14.83;59.45;100855.06;4965454;28;96935;-74
2023/11/08 10:15:22;;;;;;;3.03;1.20;;;;;;;14.56;60.40;100842.25;4963743;28;101417;-73
2023/11/08 10:17:49;;;;;;;5.82;1.10;;;;;;;14.59;60.02;100855.38;4960293;28;99188;-74
2023/11/08 10:20:20;;;;;;;6.40;1.40;;;;;;;14.60;60.24;100846.44;4963646;28;101181;-74
2023/11/08 10:22:47;;;;;;;13.40;1.58;;;;;;;14.82;59.94;100846.22;4966680;28;96827;-75
2023/11/08 10:25:16;;;;;;;11.40;1.90;;;;;;;14.70;59.09;100852.19;4960154;28;98235;-74
2023/11/08 10:27:43;;;;;;;7.53;1.67;;;;;;;14.48;60.31;100844.41;4967778;28;99009;-74
2023/11/08 10:30:15;;;;;;;21.45;1.50;;;;;;;14.32;60.99;100848.72;4969028;28;98719;-75
2023/11/08 10:32:43;;;;;;;7.45;1.48;;;;;;;14.86;59.42;100847.78;4967796;28;97088;-74
2023/11/08 10:35:12;;;;;;;8.85;1.02;;;;;;;15.00;58.61;100831.09;4966411;28;97130;-73
2023/11/08 10:37:39;;;;;;;13.05;2.00;;;;;;;15.11;58.27;100842.03;4963335;28;98860;-75
2023/11/08 10:40:08;;;;;;;27.27;2.78;;;;;;;14.74;58.82;100848.41;4961990;28;98883;-74
2023/11/08 10:42:36;;;;;;;3.53;1.30;;;;;;;14.62;59.38;100836.59;4963675;28;98401;-74
2023/11/08 10:45:09;;;;;;;3.10;1.40;;;;;;;14.70;59.53;100849.53;4966305;28;98798;-76
2023/11/08 10:47:37;;;;;;;3.70;1.02;;;;;;;14.52;60.33;100840.66;4966916;28;100927;-74
2023/11/08 10:50:05;;;;;;;3.35;1.00;;;;;;;14.82;59.05;100846.22;4958191;28;98921;-75
2023/11/08 10:52:32;;;;;;;5.05;1.42;;;;;;;15.05;58.52;100848.53;4963017;28;96844;-74
2023/11/08 10:54:59;;;;;;;5.38;0.80;;;;;;;14.83;59.12;100842.63;4959682;28;98485;-75
2023/11/08 10:57:30;;;;;;;5.78;1.23;;;;;;;14.41;60.04;100850.09;4964763;28;99655;-74
2023/11/08 11:00:00;;;;;;;2.92;1.15;;;;;;;14.41;60.29;100856.28;4966850;28;98895;-74
2023/11/08 11:02:34;;;;;;;4.45;1.20;;;;;;;14.29;60.69;100846.22;4961475;28;96848;-74
2023/11/08 11:05:04;;;;;;;3.22;0.98;;;;;;;14.66;59.47;100851.47;4965665;28;97827;-74
2023/11/08 11:07:32;;;;;;;3.70;1.23;;;;;;;14.70;59.65;100847.69;4964665;28;99023;-75
2023/11/08 11:09:59;;;;;;;3.97;1.10;;;;;;;15.08;58.49;100848.41;4964266;28;98792;-74
2023/11/08 11:12:36;;;;;;;4.57;1.33;;;;;;;15.21;57.83;100853.06;4963975;28;96952;-75
2023/11/08 11:15:11;;;;;;;2.28;1.05;;;;;;;15.55;56.46;100858.34;4966573;28;97456;-75
2023/11/08 11:17:44;;;;;;;9.05;4.43;;;;;;;15.60;55.97;100855.44;4961322;28;98941;-74
2023/11/08 11:20:14;;;;;;;13.48;5.25;;;;;;;15.80;55.56;100844.53;4963853;28;98823;-74
2023/11/08 11:22:42;;;;;;;2.75;1.13;;;;;;;15.31;56.37;100849.84;4959820;28;98592;-75
2023/11/08 11:25:11;;;;;;;3.08;1.00;;;;;;;15.12;57.04;100857.94;4964733;28;98402;-75